Time;durP1;ratioP1;P1;durP2;ratioP2;P2;SDS_P1;SDS_P2;PMS_P1;PMS_P2;Temp;Humidity;BMP_temperature;BMP_pressure;BME280_temperature;BME280_humidity;BME280_pressure;Samples;Min_cycle;Max_cycle;Signal;HPM_P1;HPM_P2
2021/07/11 00:01:14;;;;;;;11.77;8.07;;;;;;;15.99;97.65;101075.56;5099536;28;20167;-68
2021/07/11 00:03:39;;;;;;;9.47;7.27;;;;;;;15.99;97.91;101069.31;5099238;28;20209;-68
2021/07/11 00:06:04;;;;;;;8.70;6.73;;;;;;;16.03;96.92;101071.66;5099248;28;20182;-68
2021/07/11 00:08:30;;;;;;;8.93;6.60;;;;;;;16.06;94.94;101074.13;5080518;28;20197;-68
2021/07/11 00:10:55;;;;;;;9.53;6.47;;;;;;;16.12;93.37;101068.31;5099805;28;20174;-68
2021/07/11 00:13:21;;;;;;;7.13;6.43;;;;;;;16.23;93.86;101065.69;5082011;28;20236;-68
2021/07/11 00:15:46;;;;;;;7.87;7.07;;;;;;;16.25;95.32;101062.88;5065171;28;20649;-68
2021/07/11 00:18:13;;;;;;;8.67;7.50;;;;;;;16.28;96.32;101059.97;5065109;28;20181;-68
2021/07/11 00:20:38;;;;;;;9.73;7.23;;;;;;;16.28;96.70;101059.97;5082478;28;20631;-69
2021/07/11 00:23:03;;;;;;;9.87;7.90;;;;;;;16.27;96.71;101051.00;5098190;28;20280;-67
2021/07/11 00:25:29;;;;;;;11.40;8.57;;;;;;;16.30;96.35;101052.63;5079944;28;20265;-68
2021/07/11 00:27:55;;;;;;;8.33;6.63;;;;;;;16.24;96.87;101053.06;5079660;28;20180;-68
2021/07/11 00:30:21;;;;;;;8.07;7.10;;;;;;;16.15;96.75;101054.63;5080220;28;20228;-67
2021/07/11 00:32:47;;;;;;;8.20;7.40;;;;;;;16.10;96.57;101045.16;5080245;28;20186;-68
2021/07/11 00:35:12;;;;;;;10.00;7.80;;;;;;;16.06;95.96;101039.13;5098602;28;20169;-67
2021/07/11 00:37:38;;;;;;;10.23;8.03;;;;;;;16.05;96.66;101047.31;5080654;28;20631;-68
2021/07/11 00:40:05;;;;;;;9.90;8.23;;;;;;;16.02;96.46;101052.94;5079911;28;20181;-67
2021/07/11 00:42:30;;;;;;;10.47;8.40;;;;;;;16.00;96.58;101055.75;5080224;28;20178;-68
2021/07/11 00:44:56;;;;;;;8.43;7.10;;;;;;;15.98;96.05;101056.78;5080392;28;20174;-67
2021/07/11 00:47:21;;;;;;;7.37;5.93;;;;;;;15.93;95.01;101059.81;5097472;28;20228;-67
2021/07/11 00:49:46;;;;;;;6.77;5.60;;;;;;;15.92;93.92;101053.56;5080165;28;20170;-67
2021/07/11 00:52:13;;;;;;;8.63;6.33;;;;;;;15.84;95.43;101050.56;5063729;28;20608;-67
2021/07/11 00:54:38;;;;;;;8.30;6.20;;;;;;;15.87;94.37;101055.72;5097762;28;20190;-67
2021/07/11 00:57:04;;;;;;;11.10;5.80;;;;;;;15.91;93.88;101054.53;5079145;28;20174;-67
2021/07/11 00:59:30;;;;;;;6.63;5.80;;;;;;;15.93;93.29;101062.50;5096912;28;20181;-67
2021/07/11 01:02:19;;;;;;;8.87;5.43;;;;;;;15.97;92.33;101058.63;5096525;28;20228;-67
2021/07/11 01:04:50;;;;;;;6.80;6.10;;;;;;;15.99;92.14;101059.41;5078598;28;20198;-67
2021/07/11 01:07:19;;;;;;;7.43;5.77;;;;;;;16.04;91.45;101062.63;5061600;28;20189;-67
2021/07/11 01:09:46;;;;;;;8.37;6.13;;;;;;;16.04;91.43;101056.38;5079269;28;20179;-67
2021/07/11 01:12:19;;;;;;;8.60;5.80;;;;;;;16.01;91.97;101068.22;5063087;28;20189;-68
2021/07/11 01:14:46;;;;;;;5.83;5.20;;;;;;;16.00;92.14;101065.66;5079976;28;20190;-68
2021/07/11 01:17:12;;;;;;;10.10;5.20;;;;;;;16.00;92.15;101062.94;5061788;28;20174;-68
2021/07/11 01:19:55;;;;;;;8.43;5.40;;;;;;;15.91;92.68;101062.63;5079672;28;20215;-67
2021/07/11 01:22:24;;;;;;;10.50;5.37;;;;;;;15.76;93.17;101066.41;5078578;28;20171;-67
2021/07/11 01:24:53;;;;;;;6.33;5.27;;;;;;;15.83;92.32;101067.69;5078670;28;20178;-68
2021/07/11 01:27:19;;;;;;;13.33;5.63;;;;;;;15.81;92.04;101061.56;5078082;28;20255;-68
2021/07/11 01:29:45;;;;;;;7.67;5.23;;;;;;;15.83;91.40;101067.69;5096920;28;20177;-67
2021/07/11 01:32:12;;;;;;;6.70;5.27;;;;;;;15.87;91.28;101071.88;5062151;28;20166;-67
2021/07/11 01:34:37;;;;;;;6.90;5.20;;;;;;;15.92;90.61;101068.84;5078757;28;20198;-67
2021/07/11 01:37:03;;;;;;;8.27;5.20;;;;;;;15.97;91.08;101063.16;5078737;28;20181;-68
2021/07/11 01:39:29;;;;;;;8.27;5.07;;;;;;;16.03;89.88;101062.72;5078435;28;20227;-68
2021/07/11 01:41:55;;;;;;;12.27;5.50;;;;;;;16.04;91.13;101072.53;5077806;28;20187;-68
2021/07/11 01:44:21;;;;;;;5.30;4.80;;;;;;;16.00;91.85;101068.34;5077663;28;20256;-67
2021/07/11 01:46:47;;;;;;;6.07;5.37;;;;;;;15.93;90.57;101068.75;5077449;28;20185;-67
2021/07/11 01:49:13;;;;;;;6.90;5.47;;;;;;;15.78;91.31;101075.22;5077872;28;20270;-68
2021/07/11 01:51:39;;;;;;;9.47;5.93;;;;;;;15.74;91.91;101076.41;5077802;28;20213;-67
2021/07/11 01:54:04;;;;;;;7.77;5.53;;;;;;;15.80;90.45;101075.97;5076957;28;20186;-67
2021/07/11 01:56:29;;;;;;;6.20;5.40;;;;;;;15.80;90.43;101081.38;5077445;28;20733;-67
2021/07/11 01:58:55;;;;;;;8.80;5.63;;;;;;;15.80;90.44;101070.59;5094920;28;20170;-67
2021/07/11 02:01:20;;;;;;;9.83;5.47;;;;;;;15.83;90.19;101070.38;5094936;28;20186;-67
2021/07/11 02:03:46;;;;;;;7.90;5.97;;;;;;;15.87;89.83;101073.72;5077087;28;20202;-67
2021/07/11 02:06:13;;;;;;;7.37;5.80;;;;;;;15.87;93.47;101077.25;5077563;28;20319;-68
2021/07/11 02:08:41;;;;;;;9.73;5.20;;;;;;;15.84;94.44;101080.19;5077868;28;20181;-67
2021/07/11 02:11:07;;;;;;;6.87;5.77;;;;;;;15.83;95.48;101081.16;5078061;28;20200;-69
2021/07/11 02:13:41;;;;;;;7.00;5.40;;;;;;;15.80;95.30;101081.38;5096078;28;20400;-67
2021/07/11 02:16:10;;;;;;;7.17;6.10;;;;;;;15.76;94.62;101085.25;5078437;28;20174;-68
2021/07/11 02:18:38;;;;;;;9.00;5.73;;;;;;;15.73;93.58;101090.84;5077698;28;20194;-68
2021/07/11 02:21:05;;;;;;;7.07;5.00;;;;;;;15.67;93.99;101085.91;5077676;28;20665;-68
2021/07/11 02:23:32;;;;;;;6.23;5.10;;;;;;;15.70;93.97;101080.31;5095642;28;20224;-67
2021/07/11 02:25:57;;;;;;;6.40;5.13;;;;;;;15.75;92.99;101078.16;5078271;28;20177;-68
2021/07/11 02:28:23;;;;;;;6.20;5.53;;;;;;;15.78;92.42;101075.22;5096243;28;20178;-68
2021/07/11 02:30:59;;;;;;;11.53;5.47;;;;;;;15.85;92.01;101072.97;5096705;28;20201;-67
2021/07/11 02:33:32;;;;;;;9.53;5.90;;;;;;;15.87;91.63;101074.56;5079522;28;20265;-67
2021/07/11 02:35:59;;;;;;;8.70;5.70;;;;;;;15.92;90.87;101075.09;5079114;28;20159;-68
2021/07/11 02:38:28;;;;;;;8.40;5.67;;;;;;;15.96;89.89;101073.06;5078068;28;20174;-67
2021/07/11 02:40:53;;;;;;;9.37;5.50;;;;;;;15.98;90.13;101078.31;5077835;28;20174;-68
2021/07/11 02:43:20;;;;;;;13.13;5.47;;;;;;;15.98;90.03;101078.31;5096063;28;20202;-67
2021/07/11 02:45:45;;;;;;;6.57;5.50;;;;;;;15.87;93.70;101071.03;5077786;28;20171;-67
2021/07/11 02:48:13;;;;;;;6.90;5.17;;;;;;;15.81;95.80;101079.53;5078899;28;20185;-68
2021/07/11 02:50:39;;;;;;;6.33;5.43;;;;;;;15.76;96.07;101079.88;5078614;28;20170;-68
2021/07/11 02:53:04;;;;;;;8.27;5.47;;;;;;;15.68;96.32;101076.00;5078406;28;20558;-67
2021/07/11 02:55:32;;;;;;;7.20;5.30;;;;;;;15.63;96.55;101084.41;5077430;28;20185;-67
2021/07/11 02:58:02;;;;;;;8.67;6.03;;;;;;;15.55;96.53;101078.63;5077648;28;20182;-68
2021/07/11 03:00:28;;;;;;;7.53;5.77;;;;;;;15.52;96.45;101076.16;5078498;28;20181;-67
2021/07/11 03:02:55;;;;;;;6.83;5.40;;;;;;;15.51;96.56;101078.00;5078019;28;20209;-68
2021/07/11 03:05:22;;;;;;;10.50;5.80;;;;;;;15.51;96.15;101074.44;5060076;28;20182;-67
2021/07/11 03:07:47;;;;;;;11.00;5.97;;;;;;;15.47;95.58;101078.31;5076922;28;20174;-68
2021/07/11 03:10:14;;;;;;;15.17;6.37;;;;;;;15.43;95.86;101087.56;5077443;28;20231;-68
2021/07/11 03:12:40;;;;;;;7.23;5.97;;;;;;;15.52;95.72;101092.31;5077315;28;20684;-67
2021/07/11 03:15:05;;;;;;;12.07;5.80;;;;;;;15.52;95.28;101092.31;5077540;28;20170;-67
2021/07/11 03:17:31;;;;;;;6.80;6.10;;;;;;;15.46;94.54;101088.22;5062255;28;20642;-68
2021/07/11 03:19:57;;;;;;;14.73;6.33;;;;;;;15.51;93.66;101085.19;5079738;28;20265;-67
2021/07/11 03:22:25;;;;;;;10.90;6.30;;;;;;;15.55;92.91;101086.69;5097117;28;20247;-68
2021/07/11 03:24:53;;;;;;;12.60;6.27;;;;;;;15.61;92.23;101087.19;5094769;28;20177;-68
2021/07/11 03:27:18;;;;;;;10.57;6.43;;;;;;;15.66;92.48;101100.31;5076885;28;20166;-68
2021/07/11 03:30:09;;;;;;;8.83;6.13;;;;;;;15.65;92.37;101098.59;5076998;28;20194;-67
2021/07/11 03:32:38;;;;;;;13.27;6.57;;;;;;;15.65;91.84;101093.22;5078327;28;20154;-68
2021/07/11 03:35:05;;;;;;;11.43;6.57;;;;;;;15.67;91.53;101091.28;5077561;28;20175;-68
2021/07/11 03:37:35;;;;;;;12.33;6.43;;;;;;;15.71;91.21;101095.47;5094577;28;20178;-68
2021/07/11 03:40:00;;;;;;;15.07;6.67;;;;;;;15.73;90.56;101096.22;5059988;28;20170;-68
2021/07/11 03:42:27;;;;;;;10.33;6.50;;;;;;;15.76;90.70;101097.84;5076813;28;20235;-68
2021/07/11 03:44:55;;;;;;;13.50;6.43;;;;;;;15.78;90.02;101093.22;5077301;28;20181;-67
2021/07/11 03:47:22;;;;;;;10.53;5.93;;;;;;;15.84;89.92;101092.78;5076661;28;20170;-67
2021/07/11 03:49:50;;;;;;;8.97;6.70;;;;;;;15.91;89.59;101096.75;5076380;28;20647;-68
2021/07/11 03:52:20;;;;;;;9.27;6.50;;;;;;;15.98;88.70;101103.41;5076371;28;20638;-69
2021/07/11 03:54:46;;;;;;;12.23;6.13;;;;;;;16.01;88.25;101107.75;5076207;28;20194;-68
2021/07/11 03:57:12;;;;;;;14.03;6.57;;;;;;;16.07;87.68;101104.63;5076722;28;20170;-68
2021/07/11 03:59:38;;;;;;;14.17;6.47;;;;;;;16.15;87.40;101102.22;5076872;28;20210;-68
2021/07/11 04:02:06;;;;;;;10.67;6.60;;;;;;;16.19;86.46;101101.03;5076241;28;20587;-68
2021/07/11 04:04:32;;;;;;;12.17;6.60;;;;;;;16.27;86.37;101101.34;5076356;28;20209;-68
2021/07/11 04:06:57;;;;;;;11.53;6.47;;;;;;;16.33;85.98;101095.50;5058940;28;20186;-68
2021/07/11 04:09:24;;;;;;;10.97;6.63;;;;;;;16.40;85.70;101099.50;5076015;28;20318;-68
2021/07/11 04:11:49;;;;;;;12.93;5.87;;;;;;;16.41;85.90;101100.34;5076051;28;20269;-68
2021/07/11 04:14:15;;;;;;;10.73;6.17;;;;;;;16.40;86.40;101104.88;5074974;28;20216;-67
2021/07/11 04:16:43;;;;;;;11.50;6.37;;;;;;;16.40;84.89;101107.56;5075495;28;20634;-67
2021/07/11 04:19:09;;;;;;;9.93;7.00;;;;;;;16.48;85.53;101099.78;5079222;28;20174;-68
2021/07/11 04:21:34;;;;;;;14.77;6.07;;;;;;;16.44;86.32;101103.69;5079248;28;20209;-67
2021/07/11 04:24:00;;;;;;;16.60;6.50;;;;;;;16.43;87.25;101107.34;5078600;28;20210;-67
2021/07/11 04:26:26;;;;;;;18.07;6.60;;;;;;;16.33;90.58;101111.66;5078817;28;20586;-68
2021/07/11 04:28:52;;;;;;;13.40;7.00;;;;;;;16.33;89.53;101116.19;5078994;28;20166;-67
2021/07/11 04:31:18;;;;;;;8.97;6.23;;;;;;;16.31;87.82;101112.75;5078792;28;20178;-68
2021/07/11 04:33:45;;;;;;;8.87;6.37;;;;;;;16.35;89.46;101108.84;5108937;22;20618;-74
2021/07/11 04:36:11;;;;;;;14.13;6.27;;;;;;;16.25;90.55;101114.03;5099057;28;20170;-74
2021/07/11 04:38:36;;;;;;;15.90;6.33;;;;;;;16.35;90.22;101106.16;5117570;28;20250;-74
2021/07/11 04:41:03;;;;;;;8.90;6.20;;;;;;;16.36;89.04;101108.78;5117523;28;20170;-73
2021/07/11 04:43:29;;;;;;;12.80;6.40;;;;;;;16.34;89.42;101108.00;5081686;28;20220;-74
2021/07/11 04:45:55;;;;;;;8.87;6.23;;;;;;;16.36;89.87;101111.47;5098861;28;20542;-74
2021/07/11 04:48:20;;;;;;;7.50;5.67;;;;;;;16.37;89.53;101113.19;5116855;28;20174;-74
2021/07/11 04:50:47;;;;;;;10.73;6.47;;;;;;;16.36;88.96;101119.53;5098251;28;20182;-74
2021/07/11 04:53:13;;;;;;;7.90;6.27;;;;;;;16.42;89.87;101124.47;5098575;28;20182;-74
2021/07/11 04:55:39;;;;;;;10.83;6.80;;;;;;;16.53;88.55;101116.47;5097854;28;20177;-74
2021/07/11 04:58:04;;;;;;;11.07;6.07;;;;;;;16.65;87.36;101117.38;5098335;28;20174;-73
2021/07/11 05:00:30;;;;;;;13.23;5.97;;;;;;;16.71;85.90;101119.66;5098014;28;20630;-73
2021/07/11 05:02:55;;;;;;;12.27;6.20;;;;;;;16.66;86.40;101120.97;5098029;28;20284;-74
2021/07/11 05:05:20;;;;;;;10.40;6.20;;;;;;;16.71;87.73;101116.97;5097878;28;20591;-73
2021/07/11 05:07:45;;;;;;;11.40;7.00;;;;;;;16.75;86.38;101120.31;5116235;28;20174;-74
2021/07/11 05:10:11;;;;;;;9.47;5.97;;;;;;;16.86;87.11;101120.38;5116250;28;20189;-73
2021/07/11 05:12:37;;;;;;;17.27;6.93;;;;;;;16.84;86.14;101122.31;5097881;28;20173;-74
2021/07/11 05:15:04;;;;;;;15.00;6.17;;;;;;;16.92;85.47;101121.75;5097458;28;20742;-73
2021/07/11 05:17:29;;;;;;;17.73;7.07;;;;;;;16.87;85.71;101120.25;5114771;28;20273;-72
2021/07/11 05:19:54;;;;;;;11.57;5.90;;;;;;;16.97;84.66;101123.13;5115945;28;20181;-74
2021/07/11 05:22:20;;;;;;;9.33;6.60;;;;;;;17.13;84.19;101125.53;5097671;28;20552;-74
2021/07/11 05:24:45;;;;;;;15.37;6.47;;;;;;;17.16;84.62;101126.16;5097439;28;20220;-73
2021/07/11 05:27:10;;;;;;;14.60;6.27;;;;;;;17.37;83.37;101125.50;5097436;28;20207;-74
2021/07/11 05:29:36;;;;;;;12.47;6.07;;;;;;;17.56;82.55;101123.09;5096608;28;20185;-74
2021/07/11 05:32:01;;;;;;;15.13;6.10;;;;;;;17.58;82.62;101131.94;5097416;28;20181;-73
2021/07/11 05:34:26;;;;;;;9.70;6.33;;;;;;;17.68;81.85;101132.09;5097365;28;20240;-73
2021/07/11 05:36:52;;;;;;;11.70;6.43;;;;;;;17.69;81.27;101129.28;5097973;28;20174;-74
2021/07/11 05:39:19;;;;;;;15.17;6.10;;;;;;;17.89;81.33;101133.16;5097469;28;20169;-74
2021/07/11 05:41:44;;;;;;;8.47;5.80;;;;;;;17.93;81.09;101131.91;5097133;28;20638;-74
2021/07/11 05:44:10;;;;;;;10.43;6.17;;;;;;;18.09;81.18;101134.25;5114173;28;20206;-73
2021/07/11 05:46:35;;;;;;;7.50;6.23;;;;;;;18.17;79.37;101128.22;5096917;28;20178;-72
2021/07/11 05:49:00;;;;;;;11.57;6.23;;;;;;;18.24;80.40;101137.59;5097465;28;20174;-73
2021/07/11 05:51:26;;;;;;;9.10;6.57;;;;;;;18.27;80.30;101131.94;5097243;28;20628;-73
2021/07/11 05:53:51;;;;;;;14.80;6.20;;;;;;;18.42;78.89;101136.09;5097267;28;20209;-73
2021/07/11 05:56:17;;;;;;;11.20;6.17;;;;;;;18.28;80.61;101139.91;5097149;28;20648;-74
2021/07/11 05:58:42;;;;;;;12.47;6.30;;;;;;;18.43;79.57;101133.25;5097593;28;20173;-73
2021/07/11 06:01:07;;;;;;;12.33;6.30;;;;;;;18.52;78.96;101128.94;5096949;28;20170;-74
2021/07/11 06:03:34;;;;;;;12.70;6.73;;;;;;;18.53;79.37;101136.06;5098106;28;20243;-73
2021/07/11 06:05:59;;;;;;;7.20;6.30;;;;;;;18.67;78.16;101132.28;5098533;28;20174;-73
2021/07/11 06:08:24;;;;;;;15.73;6.53;;;;;;;18.77;78.28;101130.53;5113935;28;20717;-73
2021/07/11 06:10:53;;;;;;;9.47;6.90;;;;;;;18.85;77.59;101127.19;5096788;28;20173;-72
2021/07/11 06:13:21;;;;;;;10.67;6.60;;;;;;;19.01;77.19;101135.78;5096555;28;20189;-73
2021/07/11 06:15:47;;;;;;;11.33;7.20;;;;;;;19.00;77.08;101134.91;5096687;28;20181;-74
2021/07/11 06:18:12;;;;;;;16.23;7.47;;;;;;;19.16;76.66;101141.72;5097202;28;20181;-73
2021/07/11 06:20:38;;;;;;;9.27;6.60;;;;;;;19.23;75.49;101143.78;5096374;28;20185;-74
2021/07/11 06:23:03;;;;;;;11.47;7.10;;;;;;;19.20;75.42;101141.34;5096495;28;20707;-74
2021/07/11 06:25:29;;;;;;;11.90;7.80;;;;;;;19.20;75.43;101144.03;5096404;28;20260;-74
2021/07/11 06:27:54;;;;;;;10.43;7.03;;;;;;;19.44;74.95;101140.25;5079500;28;20260;-73
2021/07/11 06:30:19;;;;;;;18.23;8.07;;;;;;;19.33;76.31;101144.75;5113821;28;20527;-74
2021/07/11 06:32:47;;;;;;;9.67;7.53;;;;;;;19.41;76.08;101135.97;5096606;28;20671;-73
2021/07/11 06:35:15;;;;;;;14.30;7.20;;;;;;;19.42;76.78;101137.69;5096363;28;20178;-73
2021/07/11 06:37:41;;;;;;;11.17;6.67;;;;;;;19.61;76.31;101140.56;5096749;28;20774;-74
2021/07/11 06:40:07;;;;;;;13.07;6.90;;;;;;;19.88;74.08;101148.16;5096676;28;20222;-75
2021/07/11 06:42:32;;;;;;;7.50;6.70;;;;;;;20.04;73.72;101144.94;5096313;28;20260;-73
2021/07/11 06:44:58;;;;;;;12.60;7.03;;;;;;;20.10;73.88;101144.44;5096280;28;20522;-73
2021/07/11 06:47:23;;;;;;;7.37;6.60;;;;;;;20.15;72.99;101150.31;5096568;28;20173;-73
2021/07/11 06:49:49;;;;;;;12.53;7.00;;;;;;;20.09;73.62;101136.44;5079526;28;20197;-72
2021/07/11 06:52:14;;;;;;;12.10;6.67;;;;;;;20.23;72.66;101146.91;5114337;28;20180;-74
2021/07/11 06:54:39;;;;;;;9.13;6.83;;;;;;;20.35;72.79;101147.66;5096117;28;20565;-73
2021/07/11 06:57:05;;;;;;;9.63;6.93;;;;;;;20.51;72.45;101146.22;5096497;28;20174;-72
2021/07/11 06:59:30;;;;;;;9.33;6.77;;;;;;;20.36;73.26;101138.53;5096580;28;20174;-73
2021/07/11 07:01:56;;;;;;;17.00;7.60;;;;;;;20.48;72.14;101142.91;5096314;28;20315;-74
2021/07/11 07:04:21;;;;;;;8.23;6.40;;;;;;;20.55;71.17;101139.50;5098076;28;20223;-75
2021/07/11 07:06:46;;;;;;;7.10;6.37;;;;;;;20.51;71.21;101137.22;5097675;28;20185;-74
2021/07/11 07:09:12;;;;;;;8.23;6.03;;;;;;;20.71;69.59;101136.25;5097831;28;20331;-74
2021/07/11 07:11:37;;;;;;;12.70;6.70;;;;;;;20.73;70.04;101142.41;5097948;28;20185;-74
2021/07/11 07:14:02;;;;;;;8.87;6.97;;;;;;;20.70;69.72;101136.41;5114518;28;20197;-75
2021/07/11 07:16:28;;;;;;;13.90;6.03;;;;;;;20.84;68.25;101139.59;5114661;28;20629;-73
2021/07/11 07:18:53;;;;;;;7.33;6.53;;;;;;;20.92;68.18;101141.59;5096599;28;20312;-73
2021/07/11 07:21:18;;;;;;;9.30;6.20;;;;;;;21.05;68.82;101138.59;5096649;28;20178;-74
2021/07/11 07:23:44;;;;;;;8.67;6.33;;;;;;;20.98;68.90;101143.75;5097755;28;20697;-74
2021/07/11 07:26:10;;;;;;;10.00;5.50;;;;;;;20.98;67.21;101143.75;5099339;28;20226;-73
2021/07/11 07:28:35;;;;;;;9.73;6.47;;;;;;;21.05;67.69;101142.19;5100064;28;20185;-75
2021/07/11 07:31:00;;;;;;;8.57;5.87;;;;;;;21.43;67.11;101146.78;5096870;28;20222;-74
2021/07/11 07:33:26;;;;;;;8.40;5.43;;;;;;;21.53;65.53;101144.06;5096986;28;20205;-73
2021/07/11 07:35:51;;;;;;;6.13;5.23;;;;;;;21.71;66.12;101136.91;5096398;28;20176;-73
2021/07/11 07:38:16;;;;;;;8.13;5.70;;;;;;;21.62;63.80;101139.66;5096029;28;20182;-74
2021/07/11 07:40:42;;;;;;;5.77;5.00;;;;;;;21.89;63.09;101133.44;5097280;28;20170;-74
2021/07/11 07:43:07;;;;;;;5.53;4.93;;;;;;;22.05;63.06;101139.16;5096524;28;20206;-73
2021/07/11 07:45:33;;;;;;;6.47;5.60;;;;;;;22.17;62.50;101140.69;5095917;28;20173;-73
2021/07/11 07:47:58;;;;;;;9.43;4.67;;;;;;;22.12;62.36;101145.72;5095981;28;20180;-73
2021/07/11 07:50:23;;;;;;;9.60;5.23;;;;;;;22.32;61.94;101143.78;5095987;28;20510;-73
2021/07/11 07:52:49;;;;;;;7.07;5.00;;;;;;;22.35;62.38;101133.47;5098379;28;20165;-74
2021/07/11 07:55:15;;;;;;;11.40;5.27;;;;;;;22.43;61.58;101143.59;5099752;28;20234;-71
2021/07/11 07:57:40;;;;;;;5.67;4.57;;;;;;;22.57;61.25;101145.78;5099768;28;20180;-74
2021/07/11 08:00:11;;;;;;;7.17;4.83;;;;;;;22.48;62.42;101148.56;5100364;28;20185;-71
2021/07/11 08:02:37;;;;;;;6.73;4.73;;;;;;;22.59;61.04;101142.91;5099724;28;20178;-74
2021/07/11 08:05:02;;;;;;;4.50;4.10;;;;;;;22.84;59.73;101141.38;5120401;28;20276;-73
2021/07/11 08:07:27;;;;;;;6.07;4.20;;;;;;;22.58;57.67;101150.22;5102225;28;20196;-73
2021/07/11 08:09:53;;;;;;;6.50;4.20;;;;;;;22.74;57.55;101139.56;5102533;28;20595;-76
2021/07/11 08:12:18;;;;;;;4.83;3.97;;;;;;;22.87;58.50;101144.66;5100741;28;20174;-73
2021/07/11 08:14:44;;;;;;;5.50;4.13;;;;;;;23.05;56.31;101144.69;5099534;28;20193;-73
2021/07/11 08:17:09;;;;;;;4.80;4.23;;;;;;;23.00;58.39;101144.28;5099079;28;20660;-75
2021/07/11 08:19:35;;;;;;;5.17;3.80;;;;;;;23.10;58.02;101144.22;5099291;28;20629;-74
2021/07/11 08:22:00;;;;;;;5.73;3.87;;;;;;;23.34;56.56;101149.88;5118510;28;20203;-74
2021/07/11 08:24:25;;;;;;;5.30;3.73;;;;;;;23.54;57.66;101146.00;5099204;28;20206;-72
2021/07/11 08:26:51;;;;;;;4.23;3.83;;;;;;;23.47;55.58;101149.50;5100714;28;20533;-75
2021/07/11 08:29:16;;;;;;;4.10;3.70;;;;;;;23.65;55.74;101151.22;5118582;28;20173;-73
2021/07/11 08:31:42;;;;;;;4.73;3.50;;;;;;;23.60;55.39;101150.00;5086446;28;20728;-74
2021/07/11 08:34:07;;;;;;;6.83;3.80;;;;;;;23.52;55.93;101153.47;5099878;28;20730;-74
2021/07/11 08:36:32;;;;;;;4.57;3.67;;;;;;;23.61;55.90;101154.44;5117464;28;20195;-72
2021/07/11 08:38:58;;;;;;;4.10;3.70;;;;;;;23.77;56.28;101153.69;5103628;28;20204;-74
2021/07/11 08:41:25;;;;;;;4.47;3.40;;;;;;;23.86;53.89;101150.88;5101577;28;20576;-75
2021/07/11 08:43:51;;;;;;;4.07;3.77;;;;;;;23.87;54.29;101149.00;5099083;28;20254;-73
2021/07/11 08:46:17;;;;;;;7.47;3.60;;;;;;;23.91;54.64;101156.72;5116890;28;20174;-74
2021/07/11 08:48:43;;;;;;;4.33;3.20;;;;;;;24.15;55.20;101152.41;5099736;28;20181;-72
2021/07/11 08:51:08;;;;;;;3.40;3.10;;;;;;;24.06;50.81;101148.78;5101026;28;20173;-75
2021/07/11 08:53:34;;;;;;;3.00;2.60;;;;;;;23.67;49.23;101149.19;5098688;28;20196;-73
2021/07/11 08:56:02;;;;;;;3.50;2.83;;;;;;;23.68;50.59;101152.78;5099730;28;20173;-74
2021/07/11 08:58:27;;;;;;;4.33;3.10;;;;;;;23.66;50.71;101143.91;5099790;28;20189;-73
2021/07/11 09:00:54;;;;;;;5.23;3.17;;;;;;;23.90;50.39;101144.09;5100672;28;20186;-74
2021/07/11 09:03:19;;;;;;;6.70;4.03;;;;;;;24.05;51.53;101148.94;5098293;28;20292;-73
2021/07/11 09:05:45;;;;;;;4.13;3.30;;;;;;;24.29;51.54;101146.41;5099382;28;20176;-73
2021/07/11 09:08:12;;;;;;;3.77;3.30;;;;;;;24.14;50.23;101145.25;5099780;28;20234;-73
2021/07/11 09:10:39;;;;;;;4.63;3.40;;;;;;;24.28;50.69;101141.97;5099242;28;20170;-74
2021/07/11 09:13:10;;;;;;;6.00;3.70;;;;;;;23.94;50.16;101142.75;5098790;28;20641;-73
2021/07/11 09:15:36;;;;;;;7.37;3.20;;;;;;;23.80;48.96;101137.03;5081942;28;20205;-76
2021/07/11 09:18:02;;;;;;;3.97;3.10;;;;;;;24.08;50.42;101145.91;5098290;28;20553;-75
2021/07/11 09:20:28;;;;;;;5.63;3.30;;;;;;;24.38;50.95;101137.22;5097995;28;20169;-74
2021/07/11 09:23:01;;;;;;;5.30;3.13;;;;;;;24.80;50.43;101134.50;5098525;28;20246;-74
2021/07/11 09:25:27;;;;;;;4.43;3.00;;;;;;;25.08;49.03;101135.13;5116142;28;20174;-73
2021/07/11 09:27:53;;;;;;;5.63;3.20;;;;;;;24.76;48.81;101138.59;5097621;28;20177;-72
2021/07/11 09:30:18;;;;;;;8.27;3.00;;;;;;;24.87;47.97;101137.41;5097878;28;20662;-73
2021/07/11 09:32:44;;;;;;;5.60;3.03;;;;;;;24.54;47.97;101128.28;5097903;28;20170;-73
2021/07/11 09:35:14;;;;;;;4.73;3.43;;;;;;;24.83;47.31;101128.69;5115183;28;20645;-74
2021/07/11 09:37:42;;;;;;;5.53;3.53;;;;;;;24.93;47.40;101129.44;5097642;28;20218;-74
2021/07/11 09:40:08;;;;;;;4.33;2.80;;;;;;;24.97;46.49;101129.09;5097388;28;20165;-73
2021/07/11 09:42:35;;;;;;;4.10;3.27;;;;;;;24.89;45.50;101122.56;5097913;28;20174;-73
2021/07/11 09:45:06;;;;;;;4.10;2.90;;;;;;;24.82;46.50;101118.81;5099136;28;20236;-73
2021/07/11 09:47:32;;;;;;;3.23;2.93;;;;;;;25.39;46.37;101132.59;5114914;28;20273;-75
2021/07/11 09:50:07;;;;;;;6.33;3.50;;;;;;;25.11;46.35;101131.19;5097283;28;20657;-74
2021/07/11 09:52:34;;;;;;;5.43;3.40;;;;;;;25.45;46.02;101131.91;5114185;28;20193;-74
2021/07/11 09:55:07;;;;;;;4.10;3.30;;;;;;;25.30;45.30;101132.78;5097404;28;20194;-75
2021/07/11 09:57:47;;;;;;;5.90;3.50;;;;;;;25.74;45.60;101127.84;5097753;28;20165;-74
2021/07/11 10:00:27;;;;;;;3.70;3.20;;;;;;;26.20;44.57;101126.19;5097693;28;20194;-75
2021/07/11 10:02:55;;;;;;;4.60;3.60;;;;;;;26.07;43.50;101137.69;5098180;28;20201;-74
2021/07/11 10:05:21;;;;;;;3.37;3.07;;;;;;;25.93;43.62;101130.19;5097216;28;20637;-74
2021/07/11 10:07:46;;;;;;;5.87;3.50;;;;;;;25.84;44.56;101132.09;5114810;28;20653;-74
2021/07/11 10:10:17;;;;;;;3.43;3.00;;;;;;;26.53;43.72;101137.06;5098221;28;20178;-74
2021/07/11 10:12:43;;;;;;;4.60;3.20;;;;;;;26.54;41.84;101131.41;5114023;28;20314;-74
2021/07/11 10:15:14;;;;;;;4.07;3.67;;;;;;;26.26;42.21;101136.44;5096385;28;20689;-74
2021/07/11 10:18:03;;;;;;;3.73;3.30;;;;;;;26.94;43.22;101126.75;5097161;28;20166;-74
2021/07/11 10:20:31;;;;;;;3.70;3.30;;;;;;;26.50;43.24;101134.69;5115141;28;20521;-74
2021/07/11 10:22:57;;;;;;;5.80;3.47;;;;;;;26.80;43.67;101131.13;5096641;28;20272;-74
2021/07/11 10:25:24;;;;;;;3.63;3.23;;;;;;;26.60;41.27;101138.06;5096972;28;20268;-73
2021/07/11 10:28:10;;;;;;;5.90;3.60;;;;;;;26.15;43.15;101145.03;5097575;28;20585;-73
2021/07/11 10:30:41;;;;;;;4.17;3.37;;;;;;;26.59;40.63;101125.41;5097058;28;20170;-74
2021/07/11 10:36:07;;;;;;;4.70;3.07;;;;;;;26.02;41.13;101129.16;5137796;22;20241;-67
2021/07/11 10:38:36;;;;;;;3.43;2.93;;;;;;;26.31;41.61;101128.53;5115647;28;20669;-67
2021/07/11 10:41:16;;;;;;;3.20;2.90;;;;;;;27.29;41.44;101128.94;5115696;28;20215;-67
2021/07/11 10:43:46;;;;;;;4.30;3.30;;;;;;;27.51;41.54;101135.44;5115674;28;20205;-68
2021/07/11 10:46:12;;;;;;;4.80;2.83;;;;;;;27.65;41.00;101136.56;5097167;28;20625;-68
2021/07/11 10:48:38;;;;;;;5.93;3.20;;;;;;;27.98;40.19;101129.72;5096920;28;20638;-68
2021/07/11 10:51:04;;;;;;;4.43;3.07;;;;;;;28.03;40.18;101131.91;5097110;28;20259;-68
2021/07/11 10:53:34;;;;;;;4.80;2.67;;;;;;;27.07;40.26;101125.13;5096971;28;20206;-68
2021/07/11 10:55:59;;;;;;;7.53;3.10;;;;;;;27.67;39.41;101129.84;5098191;28;20515;-68
2021/07/11 10:58:25;;;;;;;3.60;2.70;;;;;;;28.01;39.55;101129.34;5097665;28;20195;-68
2021/07/11 11:00:50;;;;;;;6.83;3.10;;;;;;;28.12;38.15;101128.00;5097211;28;20519;-68
2021/07/11 11:03:21;;;;;;;7.57;3.20;;;;;;;28.39;39.88;101142.16;5115917;28;20173;-69
2021/07/11 11:05:48;;;;;;;3.90;3.03;;;;;;;27.53;39.80;101140.75;5097295;28;20168;-68
2021/07/11 11:08:15;;;;;;;4.80;3.10;;;;;;;27.95;40.58;101135.59;5116148;28;20343;-69
2021/07/11 11:10:42;;;;;;;3.77;3.13;;;;;;;28.74;37.25;101135.88;5124140;28;20166;-68
2021/07/11 11:13:17;;;;;;;4.20;2.83;;;;;;;28.44;37.88;101135.06;5104553;28;20220;-68
2021/07/11 11:15:55;;;;;;;4.53;2.60;;;;;;;29.36;36.38;101137.19;5104457;28;20180;-68
2021/07/11 11:18:27;;;;;;;3.30;2.60;;;;;;;30.20;34.50;101135.44;5115145;28;20156;-69
2021/07/11 11:21:04;;;;;;;5.00;2.60;;;;;;;29.66;34.74;101130.53;5115236;28;20250;-68
2021/07/11 11:23:34;;;;;;;4.25;2.60;;;;;;;30.42;33.08;101136.16;5114671;28;20504;-68